createdAt,value
2018-03-09T00:01:53.024Z,4.96
2018-03-09T00:03:54.763Z,4.95
2018-03-09T00:05:56.527Z,5.02
2018-03-09T00:07:58.193Z,4.96
2018-03-09T00:09:59.929Z,5.09
2018-03-09T00:12:01.577Z,4.99
2018-03-09T00:14:03.305Z,5.05
2018-03-09T00:16:04.936Z,5.05
2018-03-09T00:18:06.602Z,5.12
2018-03-09T00:20:08.203Z,5.12
2018-03-09T00:22:09.917Z,5.09
2018-03-09T00:24:11.570Z,5.17
2018-03-09T00:26:13.642Z,5.09
2018-03-09T00:28:15.901Z,5.13
2018-03-09T00:30:17.588Z,5.22
2018-03-09T00:32:20.126Z,5.14
2018-03-09T00:34:21.930Z,5.16
2018-03-09T00:36:23.582Z,5.22
2018-03-09T00:38:25.244Z,5.19
2018-03-09T00:40:26.878Z,5.07
2018-03-09T00:42:28.521Z,5.13
2018-03-09T00:44:30.330Z,5.16
2018-03-09T00:46:32.383Z,5.10
2018-03-09T00:48:33.994Z,5.01
2018-03-09T00:50:35.644Z,5.02
2018-03-09T00:52:37.951Z,4.95
2018-03-09T00:54:39.609Z,4.95
2018-03-09T00:56:41.258Z,5.04
2018-03-09T00:58:42.981Z,4.95
2018-03-09T01:00:44.593Z,4.80
2018-03-09T01:02:46.849Z,4.91
2018-03-09T01:04:49.359Z,4.77
2018-03-09T01:06:51.752Z,4.80
2018-03-09T01:08:54.126Z,4.73
2018-03-09T01:10:55.826Z,4.65
2018-03-09T01:12:57.440Z,4.64
2018-03-09T01:14:59.171Z,4.65
2018-03-09T01:17:00.927Z,4.67
2018-03-09T01:19:03.341Z,4.70
2018-03-09T01:21:04.988Z,4.59
2018-03-09T01:23:07.318Z,4.58
2018-03-09T01:25:09.812Z,4.58
2018-03-09T01:27:11.482Z,4.65
2018-03-09T01:29:13.151Z,4.65
2018-03-09T01:31:14.795Z,4.72
2018-03-09T01:33:16.503Z,4.59
2018-03-09T01:35:18.135Z,4.58
2018-03-09T01:37:19.816Z,4.62
2018-03-09T01:39:21.429Z,4.61
2018-03-09T01:41:23.833Z,4.59
2018-03-09T01:43:25.489Z,4.73
2018-03-09T01:45:27.257Z,4.64
2018-03-09T01:47:29.764Z,4.61
2018-03-09T01:49:31.292Z,4.75
2018-03-09T01:51:33.555Z,4.64
2018-03-09T01:53:35.383Z,4.61
2018-03-09T01:55:37.041Z,4.80
2018-03-09T01:57:38.816Z,4.72
2018-03-09T01:59:40.571Z,4.65
2018-03-09T02:01:42.299Z,4.64
2018-03-09T02:03:44.084Z,4.70
2018-03-09T02:05:45.765Z,4.57
2018-03-09T02:07:47.453Z,4.54
2018-03-09T02:09:49.188Z,4.37
2018-03-09T02:11:52.015Z,4.47
2018-03-09T02:13:53.706Z,4.36
2018-03-09T02:15:55.414Z,4.50
2018-03-09T02:17:57.885Z,4.37
2018-03-09T02:20:00.295Z,4.50
2018-03-09T02:22:01.926Z,4.54
2018-03-09T02:24:03.602Z,4.46
2018-03-09T02:26:05.332Z,4.59
2018-03-09T02:28:07.791Z,4.52
2018-03-09T02:30:09.469Z,4.40
2018-03-09T02:32:11.114Z,4.39
2018-03-09T02:34:13.532Z,4.42
2018-03-09T02:36:15.201Z,4.51
2018-03-09T02:38:16.901Z,4.37
2018-03-09T02:40:18.527Z,4.33
2018-03-09T02:42:20.919Z,4.37
2018-03-09T02:44:22.528Z,4.33
2018-03-09T02:46:24.867Z,4.34
2018-03-09T02:48:26.475Z,4.26
2018-03-09T02:50:28.223Z,4.26
2018-03-09T02:52:30.050Z,4.29
2018-03-09T02:54:31.802Z,4.33
2018-03-09T02:56:33.484Z,4.29
2018-03-09T02:58:35.097Z,4.40
2018-03-09T03:00:37.464Z,4.33
2018-03-09T03:02:39.108Z,4.46
2018-03-09T03:04:40.603Z,4.40
2018-03-09T03:06:42.003Z,4.44
2018-03-09T03:08:43.452Z,4.52
2018-03-09T03:10:44.937Z,4.52
2018-03-09T03:12:47.260Z,4.44
2018-03-09T03:14:48.930Z,4.32
2018-03-09T03:16:50.653Z,4.42
2018-03-09T03:18:52.277Z,4.37
2018-03-09T03:20:53.983Z,4.37
2018-03-09T03:22:55.607Z,4.39
2018-03-09T03:24:57.417Z,4.33
2018-03-09T03:26:58.996Z,4.40
2018-03-09T03:29:00.808Z,4.36
2018-03-09T03:31:03.150Z,4.34
2018-03-09T03:33:04.781Z,4.34
2018-03-09T03:35:07.241Z,4.43
2018-03-09T03:37:08.960Z,4.36
2018-03-09T03:39:11.475Z,4.52
2018-03-09T03:41:13.099Z,4.44
2018-03-09T03:43:15.678Z,4.58
2018-03-09T03:45:17.392Z,4.42
2018-03-09T03:47:19.090Z,4.54
2018-03-09T03:49:21.591Z,4.46
2018-03-09T03:51:23.287Z,4.42
2018-03-09T03:53:25.065Z,4.54
2018-03-09T03:55:26.680Z,4.58
2018-03-09T03:57:28.980Z,4.54
2018-03-09T03:59:30.622Z,4.62
2018-03-09T04:01:32.222Z,4.57
2018-03-09T04:03:34.208Z,4.50
2018-03-09T04:05:35.874Z,4.65
2018-03-09T04:07:37.533Z,4.70
2018-03-09T04:09:39.172Z,4.73
2018-03-09T04:11:40.834Z,4.73
2018-03-09T04:13:42.590Z,4.79
2018-03-09T04:15:44.385Z,4.77
2018-03-09T04:17:46.196Z,4.75
2018-03-09T04:19:47.830Z,4.70
2018-03-09T04:21:50.281Z,4.70
2018-03-09T04:23:51.968Z,4.67
2018-03-09T04:25:54.340Z,4.80
2018-03-09T04:27:56.021Z,4.72
2018-03-09T04:29:57.704Z,4.73
2018-03-09T04:31:59.559Z,4.75
2018-03-09T04:34:01.249Z,4.94
2018-03-09T04:36:02.926Z,4.80
2018-03-09T04:38:04.689Z,4.86
2018-03-09T04:40:06.493Z,4.73
2018-03-09T04:42:08.241Z,4.91
2018-03-09T04:44:10.008Z,4.89
2018-03-09T04:46:12.405Z,4.99
2018-03-09T04:48:14.017Z,4.91
2018-03-09T04:50:15.810Z,4.89
2018-03-09T04:52:17.553Z,4.95
2018-03-09T04:54:19.155Z,4.88
2018-03-09T04:56:20.835Z,4.99
2018-03-09T04:58:22.669Z,4.88
2018-03-09T05:00:24.283Z,4.92
2018-03-09T05:02:25.988Z,4.94
2018-03-09T05:04:27.722Z,4.88
2018-03-09T05:06:29.387Z,4.88
2018-03-09T05:08:31.572Z,4.98
2018-03-09T05:10:33.398Z,4.96
2018-03-09T05:12:35.068Z,4.92
2018-03-09T05:14:36.685Z,4.92
2018-03-09T05:16:39.077Z,4.89
2018-03-09T05:18:40.652Z,4.96
2018-03-09T05:20:42.991Z,4.84
2018-03-09T05:22:44.641Z,5.02
2018-03-09T05:24:46.327Z,4.91
2018-03-09T05:26:48.046Z,4.86
2018-03-09T05:28:49.740Z,4.91
2018-03-09T05:30:51.360Z,4.95
2018-03-09T05:32:53.025Z,4.95
2018-03-09T05:34:55.382Z,4.92
2018-03-09T05:36:56.914Z,4.91
2018-03-09T05:38:58.581Z,4.91
2018-03-09T05:41:00.285Z,4.91
2018-03-09T05:43:02.720Z,4.92
2018-03-09T05:45:04.478Z,4.99
2018-03-09T05:47:06.145Z,4.96
2018-03-09T05:49:07.916Z,4.96
2018-03-09T05:51:09.574Z,4.94
2018-03-09T05:53:11.471Z,4.99
2018-03-09T05:55:13.166Z,4.91
2018-03-09T05:57:15.736Z,4.94
2018-03-09T05:59:18.116Z,5.05
2018-03-09T06:01:20.487Z,5.12
2018-03-09T06:03:22.126Z,5.01
2018-03-09T06:05:23.763Z,5.10
2018-03-09T06:07:25.434Z,5.02
2018-03-09T06:09:27.896Z,5.07
2018-03-09T06:11:29.697Z,5.07
2018-03-09T06:13:31.363Z,5.10
2018-03-09T06:15:33.072Z,5.12
2018-03-09T06:17:34.734Z,5.13
2018-03-09T06:19:36.407Z,5.13
2018-03-09T06:21:38.061Z,5.23
2018-03-09T06:23:40.513Z,5.20
2018-03-09T06:25:42.222Z,5.27
2018-03-09T06:27:43.966Z,5.23
2018-03-09T06:29:46.218Z,5.31
2018-03-09T06:31:47.933Z,5.13
2018-03-09T06:33:49.650Z,5.09
2018-03-09T06:35:51.295Z,5.07
2018-03-09T06:37:53.715Z,5.07
2018-03-09T06:39:55.618Z,5.02
2018-03-09T06:41:57.341Z,4.96
2018-03-09T06:43:58.981Z,4.98
2018-03-09T06:46:00.666Z,4.99
2018-03-09T06:48:02.355Z,5.02
2018-03-09T06:50:04.116Z,4.96
2018-03-09T06:52:05.826Z,5.02
2018-03-09T06:54:07.588Z,5.12
2018-03-09T06:56:09.276Z,5.05
2018-03-09T06:58:10.968Z,5.07
2018-03-09T07:00:12.779Z,5.09
2018-03-09T07:02:16.235Z,5.23
2018-03-09T07:04:18.105Z,5.19
2018-03-09T07:06:19.813Z,5.09
2018-03-09T07:08:22.296Z,5.05
2018-03-09T07:10:24.026Z,5.12
2018-03-09T07:12:25.744Z,5.10
2018-03-09T07:14:28.159Z,5.13
2018-03-09T07:16:29.893Z,5.13
2018-03-09T07:18:32.257Z,5.20
2018-03-09T07:20:33.928Z,5.13
2018-03-09T07:22:35.556Z,5.23
2018-03-09T07:24:37.271Z,5.30
2018-03-09T07:26:38.997Z,5.25
2018-03-09T07:28:40.835Z,5.23
2018-03-09T07:30:42.679Z,5.16
2018-03-09T07:32:44.230Z,5.05
2018-03-09T07:34:45.963Z,4.99
2018-03-09T07:36:48.637Z,5.10
2018-03-09T07:38:50.980Z,5.09
2018-03-09T07:40:52.674Z,5.17
2018-03-09T07:42:54.483Z,5.17
2018-03-09T07:44:56.377Z,5.23
2018-03-09T07:46:57.996Z,5.19
2018-03-09T07:48:59.615Z,5.20
2018-03-09T07:51:01.298Z,5.23
2018-03-09T07:53:03.781Z,5.22
2018-03-09T07:55:05.927Z,5.38
2018-03-09T07:57:07.639Z,5.41
2018-03-09T07:59:09.928Z,5.35
2018-03-09T08:01:11.680Z,5.46
2018-03-09T08:03:13.513Z,5.49
2018-03-09T08:05:15.297Z,5.38
2018-03-09T08:07:17.009Z,5.43
2018-03-09T08:09:18.706Z,5.40
2018-03-09T08:11:20.350Z,5.49
2018-03-09T08:13:22.549Z,5.53
2018-03-09T08:15:24.990Z,5.56
2018-03-09T08:17:26.597Z,5.55
2018-03-09T08:19:28.197Z,5.40
2018-03-09T08:21:30.019Z,5.60
2018-03-09T08:23:31.664Z,5.63
2018-03-09T08:25:33.292Z,5.68
2018-03-09T08:27:34.975Z,5.63
2018-03-09T08:29:36.586Z,5.57
2018-03-09T08:31:38.968Z,5.70
2018-03-09T08:33:40.603Z,5.67
2018-03-09T08:35:42.303Z,5.64
2018-03-09T08:37:44.127Z,5.68
2018-03-09T08:39:45.866Z,5.64
2018-03-09T08:41:47.575Z,5.67
2018-03-09T08:43:49.347Z,5.70
2018-03-09T08:45:51.677Z,5.81
2018-03-09T08:47:53.395Z,5.71
2018-03-09T08:49:55.711Z,5.78
2018-03-09T08:51:57.492Z,5.91
2018-03-09T08:53:59.155Z,5.98
2018-03-09T08:56:01.014Z,6.06
2018-03-09T08:58:02.623Z,5.95
2018-03-09T09:00:04.256Z,5.95
2018-03-09T09:02:06.489Z,5.96
2018-03-09T09:04:08.084Z,6.11
2018-03-09T09:06:10.513Z,6.16
2018-03-09T09:08:12.213Z,6.07
2018-03-09T09:10:14.583Z,6.09
2018-03-09T09:12:16.182Z,6.04
2018-03-09T09:14:17.798Z,6.13
2018-03-09T09:16:19.491Z,6.28
2018-03-09T09:18:21.657Z,6.43
2018-03-09T09:20:23.399Z,6.47
2018-03-09T09:22:25.109Z,6.58
2018-03-09T09:24:26.855Z,6.66
2018-03-09T09:26:29.185Z,6.50
2018-03-09T09:28:30.719Z,6.59
2018-03-09T09:30:32.544Z,6.51
2018-03-09T09:32:34.266Z,6.56
2018-03-09T09:34:35.878Z,6.58
2018-03-09T09:36:37.561Z,6.71
2018-03-09T09:38:39.753Z,6.76
2018-03-09T09:40:41.378Z,6.90
2018-03-09T09:42:43.079Z,6.94
2018-03-09T09:44:44.837Z,6.73
2018-03-09T09:46:46.521Z,6.90
2018-03-09T09:48:48.268Z,7.01
2018-03-09T09:50:49.863Z,7.26
2018-03-09T09:52:52.111Z,7.35
2018-03-09T09:54:53.868Z,7.42
2018-03-09T09:56:55.706Z,7.23
2018-03-09T09:58:57.800Z,7.40
2018-03-09T10:00:59.443Z,7.38
2018-03-09T10:03:01.609Z,7.27
2018-03-09T10:05:03.214Z,7.41
2018-03-09T10:07:05.400Z,7.50
2018-03-09T10:09:07.710Z,7.60
2018-03-09T10:11:09.915Z,7.81
2018-03-09T10:13:11.394Z,7.99
2018-03-09T10:15:13.093Z,7.79
2018-03-09T10:17:15.210Z,7.85
2018-03-09T10:19:17.015Z,8.02
2018-03-09T10:21:19.094Z,8.12
2018-03-09T10:23:20.765Z,8.14
2018-03-09T10:25:22.601Z,8.02
2018-03-09T10:27:24.595Z,8.20
2018-03-09T10:29:26.245Z,8.42
2018-03-09T10:31:28.428Z,8.22
2018-03-09T10:33:30.103Z,8.15
2018-03-09T10:35:31.866Z,8.26
2018-03-09T10:37:34.022Z,8.37
2018-03-09T10:39:35.807Z,8.29
2018-03-09T10:41:37.522Z,8.36
2018-03-09T10:43:39.277Z,8.60
2018-03-09T10:45:41.024Z,8.54
2018-03-09T10:47:42.796Z,8.57
2018-03-09T10:49:44.363Z,8.51
2018-03-09T10:51:46.117Z,8.37
2018-03-09T10:53:48.195Z,8.37
2018-03-09T10:55:49.959Z,8.25
2018-03-09T10:57:51.600Z,8.29
2018-03-09T10:59:53.239Z,8.33
2018-03-09T11:01:54.960Z,8.50
2018-03-09T11:03:57.047Z,8.51
2018-03-09T11:05:59.074Z,8.76
2018-03-09T11:08:00.777Z,8.86
2018-03-09T11:10:02.552Z,8.83
2018-03-09T11:12:04.320Z,9.04
2018-03-09T11:14:06.459Z,9.16
2018-03-09T11:16:08.594Z,9.28
2018-03-09T11:18:10.102Z,9.45
2018-03-09T11:20:11.590Z,9.48
2018-03-09T11:22:13.022Z,9.46
2018-03-09T11:24:14.434Z,9.31
2018-03-09T11:26:15.853Z,9.49
2018-03-09T11:28:17.271Z,9.40
2018-03-09T11:30:18.744Z,9.45
2018-03-09T11:32:20.155Z,9.64
2018-03-09T11:34:21.648Z,9.71
2018-03-09T11:36:23.395Z,9.66
2018-03-09T11:38:25.027Z,9.56
2018-03-09T11:40:26.837Z,9.60
2018-03-09T11:42:28.941Z,9.58
2018-03-09T11:44:30.925Z,9.63
2018-03-09T11:46:32.767Z,9.68
2018-03-09T11:48:34.462Z,9.76
2018-03-09T11:50:36.211Z,9.93
2018-03-09T11:52:38.231Z,10.15
2018-03-09T11:54:39.925Z,10.12
2018-03-09T11:56:41.946Z,10.00
2018-03-09T11:58:43.637Z,9.91
2018-03-09T12:00:45.393Z,9.86
2018-03-09T12:02:47.437Z,9.96
2018-03-09T12:04:49.636Z,10.04
2018-03-09T12:06:51.383Z,10.22
2018-03-09T12:08:53.121Z,10.12
2018-03-09T12:10:55.283Z,10.17
2018-03-09T12:12:57.109Z,10.01
2018-03-09T12:14:58.810Z,9.94
2018-03-09T12:17:00.571Z,9.82
2018-03-09T12:19:02.253Z,9.86
2018-03-09T12:21:03.910Z,9.89
2018-03-09T12:23:05.898Z,9.88
2018-03-09T12:25:07.956Z,9.94
2018-03-09T12:27:09.615Z,10.17
2018-03-09T12:29:11.643Z,10.21
2018-03-09T12:31:13.295Z,10.22
2018-03-09T12:33:15.322Z,10.28
2018-03-09T12:35:17.064Z,10.24
2018-03-09T12:37:18.770Z,10.39
2018-03-09T12:39:20.490Z,10.68
2018-03-09T12:41:22.126Z,10.88
2018-03-09T12:43:24.025Z,10.81
2018-03-09T12:45:25.561Z,10.56
2018-03-09T12:47:27.676Z,10.43
2018-03-09T12:49:29.327Z,10.37
2018-03-09T12:51:31.041Z,10.33
2018-03-09T12:53:32.728Z,10.33
2018-03-09T12:55:34.445Z,10.34
2018-03-09T12:57:36.102Z,10.47
2018-03-09T12:59:37.745Z,10.70
2018-03-09T13:01:39.430Z,10.62
2018-03-09T13:03:41.218Z,10.68
2018-03-09T13:05:42.810Z,10.80
2018-03-09T13:07:44.390Z,10.80
2018-03-09T13:09:46.100Z,10.63
2018-03-09T13:11:47.856Z,10.66
2018-03-09T13:13:49.610Z,10.47
2018-03-09T13:15:51.638Z,10.46
2018-03-09T13:17:53.202Z,10.60
2018-03-09T13:19:54.827Z,10.95
2018-03-09T13:21:56.647Z,11.21
2018-03-09T13:23:58.596Z,11.52
2018-03-09T13:26:00.380Z,11.67
2018-03-09T13:28:02.066Z,11.70
2018-03-09T13:30:04.145Z,11.49
2018-03-09T13:32:05.840Z,11.46
2018-03-09T13:34:07.608Z,11.32
2018-03-09T13:36:09.269Z,11.31
2018-03-09T13:38:11.379Z,11.43
2018-03-09T13:40:13.164Z,11.64
2018-03-09T13:42:14.962Z,11.67
2018-03-09T13:44:16.819Z,11.62
2018-03-09T13:46:18.550Z,11.27
2018-03-09T13:48:20.458Z,11.11
2018-03-09T13:50:22.115Z,10.98
2018-03-09T13:52:23.818Z,10.80
2018-03-09T13:54:25.468Z,10.68
2018-03-09T13:56:27.144Z,10.66
2018-03-09T13:58:29.196Z,10.95
2018-03-09T14:00:30.945Z,11.20
2018-03-09T14:02:32.993Z,11.21
2018-03-09T14:04:34.764Z,11.10
2018-03-09T14:06:36.729Z,10.86
2018-03-09T14:08:38.443Z,10.80
2018-03-09T14:10:40.128Z,10.96
2018-03-09T14:12:41.912Z,10.83
2018-03-09T14:14:43.680Z,10.88
2018-03-09T14:16:45.824Z,10.81
2018-03-09T14:18:48.047Z,11.02
2018-03-09T14:20:50.298Z,11.07
2018-03-09T14:22:52.332Z,11.20
2018-03-09T14:24:54.010Z,11.31
2018-03-09T14:26:55.758Z,11.38
2018-03-09T14:28:57.473Z,11.31
2018-03-09T14:30:59.538Z,11.24
2018-03-09T14:33:01.312Z,11.13
2018-03-09T14:35:03.009Z,11.11
2018-03-09T14:37:04.779Z,11.10
2018-03-09T14:39:06.550Z,11.17
2018-03-09T14:41:08.317Z,11.20
2018-03-09T14:43:10.106Z,11.09
2018-03-09T14:45:11.724Z,11.19
2018-03-09T14:47:13.435Z,11.16
2018-03-09T14:49:15.176Z,10.98
2018-03-09T14:51:16.876Z,11.06
2018-03-09T14:53:18.520Z,10.84
2018-03-09T14:55:20.239Z,10.70
2018-03-09T14:57:21.954Z,10.65
2018-03-09T14:59:23.736Z,10.56
2018-03-09T15:01:25.430Z,10.46
2018-03-09T15:03:27.127Z,10.52
2018-03-09T15:05:28.783Z,10.39
2018-03-09T15:07:30.768Z,10.44
2018-03-09T15:09:32.505Z,10.59
2018-03-09T15:11:34.569Z,10.59
2018-03-09T15:13:36.295Z,10.74
2018-03-09T15:15:38.500Z,10.89
2018-03-09T15:17:40.164Z,10.83
2018-03-09T15:19:41.895Z,10.71
2018-03-09T15:21:43.606Z,10.88
2018-03-09T15:23:45.223Z,10.84
2018-03-09T15:25:46.957Z,10.84
2018-03-09T15:27:48.809Z,10.83
2018-03-09T15:29:50.466Z,11.03
2018-03-09T15:31:52.205Z,11.02
2018-03-09T15:33:54.240Z,11.19
2018-03-09T15:35:55.887Z,11.31
2018-03-09T15:37:57.601Z,11.31
2018-03-09T15:39:59.477Z,11.49
2018-03-09T15:42:01.190Z,11.49
2018-03-09T15:44:02.965Z,11.29
2018-03-09T15:46:04.706Z,11.27
2018-03-09T15:48:06.433Z,11.34
2018-03-09T15:50:08.595Z,11.27
2018-03-09T15:52:10.214Z,11.19
2018-03-09T15:54:11.925Z,11.24
2018-03-09T15:56:13.944Z,11.10
2018-03-09T15:58:15.618Z,11.13
2018-03-09T16:00:17.667Z,11.11
2018-03-09T16:02:19.661Z,10.99
2018-03-09T16:04:21.414Z,11.17
2018-03-09T16:06:23.563Z,11.19
2018-03-09T16:08:25.588Z,11.16
2018-03-09T16:10:27.216Z,10.99
2018-03-09T16:12:28.919Z,11.20
2018-03-09T16:14:30.494Z,11.16
2018-03-09T16:16:32.133Z,10.96
2018-03-09T16:18:33.887Z,11.01
2018-03-09T16:20:35.990Z,10.98
2018-03-09T16:22:37.718Z,11.01
2018-03-09T16:24:39.426Z,11.01
2018-03-09T16:26:41.141Z,10.99
2018-03-09T16:28:42.877Z,10.78
2018-03-09T16:30:44.563Z,10.83
2018-03-09T16:32:46.693Z,10.84
2018-03-09T16:34:48.427Z,11.01
2018-03-09T16:36:50.687Z,11.19
2018-03-09T16:38:52.719Z,11.20
2018-03-09T16:40:54.451Z,11.21
2018-03-09T16:42:56.150Z,11.24
2018-03-09T16:44:57.837Z,10.99
2018-03-09T16:47:00.092Z,11.10
2018-03-09T16:49:01.722Z,11.11
2018-03-09T16:51:03.587Z,11.17
2018-03-09T16:53:05.322Z,11.16
2018-03-09T16:55:07.530Z,11.20
2018-03-09T16:57:09.151Z,11.34
2018-03-09T16:59:10.842Z,11.34
2018-03-09T17:01:13.041Z,11.32
2018-03-09T17:03:15.484Z,11.38
2018-03-09T17:05:17.791Z,11.39
2018-03-09T17:07:19.525Z,11.46
2018-03-09T17:09:21.222Z,11.52
2018-03-09T17:11:22.908Z,11.49
2018-03-09T17:13:24.640Z,11.38
2018-03-09T17:15:27.248Z,11.46
2018-03-09T17:17:28.942Z,11.43
2018-03-09T17:19:31.030Z,11.46
2018-03-09T17:21:32.705Z,11.44
2018-03-09T17:23:34.401Z,11.43
2018-03-09T17:25:36.112Z,11.39
2018-03-09T17:27:37.755Z,11.43
2018-03-09T17:29:39.442Z,11.39
2018-03-09T17:31:41.884Z,11.41
2018-03-09T17:33:45.629Z,11.44
2018-03-09T17:35:47.965Z,11.39
2018-03-09T17:37:50.443Z,11.34
2018-03-09T17:39:53.019Z,11.39
2018-03-09T17:41:54.801Z,11.32
2018-03-09T17:43:56.497Z,11.29
2018-03-09T17:45:59.124Z,11.27
2018-03-09T17:48:01.593Z,11.21
2018-03-09T17:50:03.236Z,11.19
2018-03-09T17:52:05.107Z,11.24
2018-03-09T17:54:06.943Z,11.19
2018-03-09T17:56:09.413Z,11.27
2018-03-09T17:58:11.339Z,11.25
2018-03-09T18:00:13.854Z,11.20
2018-03-09T18:02:15.518Z,11.11
2018-03-09T18:04:17.408Z,11.10
2018-03-09T18:06:19.130Z,11.10
2018-03-09T18:08:21.741Z,11.03
2018-03-09T18:10:23.460Z,11.02
2018-03-09T18:12:25.145Z,11.02
2018-03-09T18:14:26.782Z,11.07
2018-03-09T18:16:28.446Z,11.03
2018-03-09T18:18:30.109Z,10.99
2018-03-09T18:20:31.823Z,10.98
2018-03-09T18:22:33.459Z,10.98
2018-03-09T18:24:35.150Z,10.95
2018-03-09T18:26:36.896Z,10.84
2018-03-09T18:28:38.593Z,10.96
2018-03-09T18:30:41.151Z,10.96
2018-03-09T18:32:43.569Z,10.86
2018-03-09T18:34:45.183Z,10.91
2018-03-09T18:36:46.871Z,10.91
2018-03-09T18:38:48.631Z,10.88
2018-03-09T18:40:51.134Z,10.98
2018-03-09T18:42:53.717Z,10.91
2018-03-09T18:44:55.366Z,10.95
2018-03-09T18:46:57.033Z,10.78
2018-03-09T18:48:58.721Z,10.83
2018-03-09T18:51:00.388Z,10.88
2018-03-09T18:53:02.084Z,10.84
2018-03-09T18:55:03.743Z,10.84
2018-03-09T18:57:05.385Z,10.76
2018-03-09T18:59:07.980Z,10.73
2018-03-09T19:01:10.085Z,10.76
2018-03-09T19:03:11.781Z,10.74
2018-03-09T19:05:13.559Z,10.65
2018-03-09T19:07:16.350Z,10.70
2018-03-09T19:09:19.426Z,10.62
2018-03-09T19:11:21.133Z,10.60
2018-03-09T19:13:23.570Z,10.62
2018-03-09T19:15:25.903Z,10.62
2018-03-09T19:17:28.268Z,10.65
2018-03-09T19:19:30.019Z,10.59
2018-03-09T19:21:33.236Z,10.70
2018-03-09T19:23:36.430Z,10.66
2018-03-09T19:25:40.398Z,10.66
2018-03-09T19:27:44.256Z,10.74
2018-03-09T19:29:45.878Z,10.71
2018-03-09T19:31:49.446Z,10.62
2018-03-09T19:33:51.161Z,10.68
2018-03-09T19:35:55.726Z,10.66
2018-03-09T19:37:57.314Z,10.66
2018-03-09T19:40:00.564Z,10.65
2018-03-09T19:42:05.527Z,10.62
2018-03-09T19:44:09.651Z,10.66
2018-03-09T19:46:13.807Z,10.68
2018-03-09T19:48:19.032Z,10.65
2018-03-09T19:50:22.817Z,10.63
2018-03-09T19:52:27.689Z,10.58
2018-03-09T19:54:33.117Z,10.51
2018-03-09T19:56:36.590Z,10.40
2018-03-09T19:58:42.645Z,10.33
2018-03-09T20:00:49.201Z,10.10
2018-03-09T20:02:54.766Z,10.12
2018-03-09T20:04:59.039Z,10.14
2018-03-09T20:07:05.795Z,10.09
2018-03-09T20:09:11.140Z,10.04
2018-03-09T20:11:18.790Z,10.12
2018-03-09T20:13:25.530Z,10.18
2018-03-09T20:15:30.822Z,10.15
2018-03-09T20:17:34.615Z,10.19
2018-03-09T20:19:43.120Z,10.30
2018-03-09T20:21:49.638Z,10.36
2018-03-09T20:23:55.531Z,10.36
2018-03-09T20:26:00.407Z,10.33
2018-03-09T20:28:04.710Z,10.24
2018-03-09T20:30:09.652Z,10.26
2018-03-09T20:32:14.607Z,10.39
2018-03-09T20:34:20.037Z,10.39
2018-03-09T20:36:26.182Z,10.40
2018-03-09T20:38:32.047Z,10.42
2018-03-09T20:40:37.243Z,10.42
2018-03-09T20:42:39.766Z,10.47
2018-03-09T20:44:45.034Z,10.42
2018-03-09T20:46:52.616Z,10.40
2018-03-09T20:48:56.543Z,10.40
2018-03-09T20:50:58.960Z,10.39
2018-03-09T20:53:02.534Z,10.39
2018-03-09T20:55:06.536Z,10.46
2018-03-09T20:57:11.533Z,10.37
2018-03-09T20:59:16.606Z,10.43
2018-03-09T21:01:21.376Z,10.34
2018-03-09T21:03:24.119Z,10.34
2018-03-09T21:05:29.190Z,10.40
2018-03-09T21:07:32.331Z,10.39
2018-03-09T21:09:36.568Z,10.39
2018-03-09T21:11:41.831Z,10.40
2018-03-09T21:13:46.872Z,10.40
2018-03-09T21:15:49.902Z,10.36
2018-03-09T21:17:54.050Z,10.39
2018-03-09T21:19:55.793Z,10.39
2018-03-09T21:21:58.311Z,10.37
2018-03-09T21:24:00.690Z,10.37
2018-03-09T21:26:03.837Z,10.28
2018-03-09T21:28:06.716Z,10.34
2018-03-09T21:30:10.509Z,10.36
2018-03-09T21:32:14.183Z,10.26
2018-03-09T21:34:17.470Z,10.33
2018-03-09T21:36:21.037Z,10.36
2018-03-09T21:38:22.754Z,10.24
2018-03-09T21:40:25.029Z,10.09
2018-03-09T21:42:28.092Z,10.21
2018-03-09T21:44:31.018Z,9.99
2018-03-09T21:46:34.446Z,9.91
2018-03-09T21:48:36.097Z,9.88
2018-03-09T21:50:38.968Z,9.86
2018-03-09T21:52:40.581Z,9.91
2018-03-09T21:54:42.285Z,9.88
2018-03-09T21:56:43.918Z,9.97
2018-03-09T21:58:45.776Z,9.91
2018-03-09T22:00:48.355Z,9.88
2018-03-09T22:02:50.653Z,9.91
2018-03-09T22:04:53.723Z,9.93
2018-03-09T22:06:56.708Z,9.91
2018-03-09T22:08:58.468Z,9.81
2018-03-09T22:11:01.217Z,9.85
2018-03-09T22:13:04.625Z,9.73
2018-03-09T22:15:07.331Z,9.94
2018-03-09T22:17:08.994Z,9.86
2018-03-09T22:19:10.836Z,9.79
2018-03-09T22:21:12.684Z,9.85
2018-03-09T22:23:14.479Z,9.82
2018-03-09T22:25:16.986Z,9.68
2018-03-09T22:27:18.732Z,9.75
2018-03-09T22:29:20.570Z,9.68
2018-03-09T22:31:22.459Z,9.71
2018-03-09T22:33:24.106Z,9.63
2018-03-09T22:35:26.000Z,9.63
2018-03-09T22:37:27.790Z,9.63
2018-03-09T22:39:29.466Z,9.57
2018-03-09T22:41:31.126Z,9.43
2018-03-09T22:43:32.874Z,9.34
2018-03-09T22:45:34.690Z,9.35
2018-03-09T22:47:36.401Z,9.32
2018-03-09T22:49:37.972Z,9.35
2018-03-09T22:51:39.651Z,9.35
2018-03-09T22:53:41.439Z,9.35
2018-03-09T22:55:44.625Z,9.43
2018-03-09T22:57:46.202Z,9.39
2018-03-09T22:59:49.002Z,9.43
2018-03-09T23:01:50.705Z,9.45
2018-03-09T23:03:52.482Z,9.34
2018-03-09T23:05:54.395Z,9.45
2018-03-09T23:07:57.575Z,9.43
2018-03-09T23:09:59.720Z,9.49
2018-03-09T23:12:01.474Z,9.42
2018-03-09T23:14:03.167Z,9.28
2018-03-09T23:16:04.828Z,9.23
2018-03-09T23:18:06.453Z,9.31
2018-03-09T23:20:08.663Z,9.16
2018-03-09T23:22:10.275Z,9.12
2018-03-09T23:24:11.919Z,9.23
2018-03-09T23:26:14.611Z,9.21
2018-03-09T23:28:16.390Z,9.24
2018-03-09T23:30:17.995Z,9.27
2018-03-09T23:32:19.683Z,9.28
2018-03-09T23:34:21.336Z,9.24
2018-03-09T23:36:23.950Z,9.24
2018-03-09T23:38:25.515Z,9.24
2018-03-09T23:40:27.146Z,9.34
2018-03-09T23:42:29.041Z,9.24
2018-03-09T23:44:30.762Z,9.34
2018-03-09T23:46:32.504Z,9.30
2018-03-09T23:48:34.282Z,9.32
2018-03-09T23:50:35.983Z,9.34
2018-03-09T23:52:37.637Z,9.32
2018-03-09T23:54:39.398Z,9.32
2018-03-09T23:56:41.010Z,9.48
2018-03-09T23:58:42.678Z,9.45
